Decoded Metar for CYPY (FORT CHIPEWYAN in AB, CANADA) (IATA:YPY) | Meteo·Mobile Aviation Weather
aviador You're here:

CYPY Decoded Metar

FORT CHIPEWYAN in AB, CANADA
Report Time2019-10-18 13:00:00
UTC Time2019-10-18 13:59:12
Flight Rules lifr LIFR
Wind270° at 13 kt
W.Decomp.*RWY 21: 9.7 kt HW 8.7 kt RCW
Visibility9999 m
Phenomena:N/A
Clouds:Overcast 004 Hf
Ceiling400 ft
Temp02°C (ISA -11)
Dew Point02°C (100% RH)
AAT-4.4°C
QNH989 hPa
Density Alt292 ft
Elevation761 ft
Report Wrong Elevation
Raw Report
CYPY 181300Z AUTO 27013KT 9SM OVC004 02/02 A2920 RMK SLP902=

Extra information for CYPY:More info

Metar Taf Metar & Taf Last 4 Metars F.Rules Stats Wind Profile Meteogram Temp Stats Airport Information Weather charts Add Link Nearby VenuesMetar ALERT Operation Metar Decoded Social comments